Nurnberg, Germany

9:22 PM CEST on September 04, 2015 (GMT +0200)
Nurnberg | | Change Station
CLOSE
Current Station
Airport
Location: Nurnberg,
Elevation: 1043 ft
Nearby Weather Stations

Elev 1043 ft 49.50 °N, 11.05 °E | Updated 32 minutes ago

Clear
Clear
55 °F
Feels Like 55 °F
N
5
Wind Variable Wind from NW

Today
High -- | Low -- °F
--% Chance of Precip.
Yesterday
High -- | Low -- °F
Precip. -- in
6:35 AM 7:53 PM
Waning Gibbous, 57% visible
Pressure 29.98 in
Visibility -9999.0 miles
Clouds
Dew Point 43 °F
Humidity 63%
Rainfall 0.00 in
Snow Depth Not available.
UV Not available.
Pollen Not available.
Air Quality Not available.
Flu Activity Not available.
METAR EDDN 041850Z 31004KT 280V340 CAVOK 13/06 Q1015 NOSIG
Pressure 29.98 in
Visibility -9999.0 miles
Clouds
Dew Point 43 °F
Humidity 63%
Rainfall 0.00 in
Snow Depth Not available.
UV Not available.
Pollen Not available.
Air Quality Not available.
Flu Activity Not available.
METAR EDDN 041850Z 31004KT 280V340 CAVOK 13/06 Q1015 NOSIG

10-Day Weather Forecast

×

Almanac

Astronomy

Sep. 04, 2015 Rise Set
Actual Time
Civil Twilight
Nautical Twilight
Astronomical Twilight
Moon
Length of Visible Light
Length of Day
Tomorrow will be .
, % of the Moon is Illuminated

Today's Extremes

Country Highs Country Lows

Community

WunderPhotos

Upload Photos

1,852,271 photos uploaded!

WunderBlogs® & News

Nearby

Air Quality

  Air Quality AQ Index Pollutant
Not available.

Snow Depth

Station Depth Elevation

Earthquake Activity

City Distance Mag. Time & Date
Minimum magnitude displayed is 2.5.

Coastal Water Temperatures

Place Temperature

Stations

Nearby Weather Stations

Station Location Temp. Windchill Dew Point Humidity Wind Precip. Elev Updated Type